createdAt,value
2018-01-17T00:00:12.207Z,98722.03
2018-01-17T00:02:37.954Z,98729.77
2018-01-17T00:05:03.710Z,98719.81
2018-01-17T00:07:29.467Z,98724.88
2018-01-17T00:09:55.223Z,98721.91
2018-01-17T00:12:20.990Z,98721.09
2018-01-17T00:14:46.785Z,98714.21
2018-01-17T00:17:12.543Z,98724.12
2018-01-17T00:19:38.298Z,98720.65
2018-01-17T00:22:04.073Z,98718.45
2018-01-17T00:24:29.816Z,98719.70
2018-01-17T00:26:55.590Z,98714.64
2018-01-17T00:29:21.324Z,98708.89
2018-01-17T00:31:47.067Z,98713.23
2018-01-17T00:34:12.831Z,98708.85
2018-01-17T00:36:38.595Z,98715.33
2018-01-17T00:39:04.353Z,98710.52
2018-01-17T00:41:30.114Z,98711.34
2018-01-17T00:43:55.870Z,98711.31
2018-01-17T00:46:21.664Z,98709.89
2018-01-17T00:48:47.411Z,98708.16
2018-01-17T00:51:13.179Z,98711.52
2018-01-17T00:53:38.946Z,98713.25
2018-01-17T00:56:04.695Z,98712.78
2018-01-17T00:58:30.466Z,98712.74
2018-01-17T01:00:56.218Z,98710.97
2018-01-17T01:03:22.006Z,98702.16
2018-01-17T01:05:47.742Z,98699.13
2018-01-17T01:08:13.498Z,98704.77
2018-01-17T01:10:39.247Z,98699.05
2018-01-17T01:13:05.016Z,98700.73
2018-01-17T01:15:30.762Z,98699.40
2018-01-17T01:17:56.517Z,98702.84
2018-01-17T01:20:22.259Z,98689.77
2018-01-17T01:22:48.002Z,98696.75
2018-01-17T01:25:13.751Z,98683.20
2018-01-17T01:27:39.523Z,98679.34
2018-01-17T01:30:05.262Z,98684.98
2018-01-17T01:32:31.444Z,98686.41
2018-01-17T01:34:57.603Z,98679.41
2018-01-17T01:37:23.700Z,98696.39
2018-01-17T01:39:49.957Z,98695.06
2018-01-17T01:42:15.722Z,98689.92
2018-01-17T01:44:41.467Z,98701.22
2018-01-17T01:47:08.061Z,98693.75
2018-01-17T01:49:33.830Z,98693.79
2018-01-17T01:51:59.587Z,98697.27
2018-01-17T01:54:25.341Z,98692.64
2018-01-17T01:56:51.103Z,98686.68
2018-01-17T01:59:16.868Z,98689.05
2018-01-17T02:01:42.621Z,98691.14
2018-01-17T02:04:08.374Z,98687.70
2018-01-17T02:06:34.127Z,98683.44
2018-01-17T02:08:59.886Z,98681.23
2018-01-17T02:11:25.639Z,98677.64
2018-01-17T02:13:51.398Z,98675.83
2018-01-17T02:16:17.158Z,98675.31
2018-01-17T02:18:42.932Z,98686.95
2018-01-17T02:21:08.696Z,98687.40
2018-01-17T02:23:34.478Z,98688.62
2018-01-17T02:26:00.224Z,98687.23
2018-01-17T02:28:25.974Z,98685.03
2018-01-17T02:30:51.754Z,98685.93
2018-01-17T02:33:17.499Z,98680.77
2018-01-17T02:35:43.265Z,98677.20
2018-01-17T02:38:09.024Z,98681.94
2018-01-17T02:40:38.783Z,98675.47
2018-01-17T02:43:04.540Z,98682.34
2018-01-17T02:45:30.302Z,98683.95
2018-01-17T02:47:56.054Z,98684.47
2018-01-17T02:50:21.820Z,98678.82
2018-01-17T02:52:48.046Z,98687.11
2018-01-17T02:55:13.803Z,98681.91
2018-01-17T02:57:39.552Z,98681.34
2018-01-17T03:00:05.310Z,98686.64
2018-01-17T03:02:31.058Z,98681.47
2018-01-17T03:04:56.810Z,98673.66
2018-01-17T03:07:22.567Z,98677.44
2018-01-17T03:09:48.306Z,98670.13
2018-01-17T03:12:14.050Z,98669.27
2018-01-17T03:14:39.800Z,98675.34
2018-01-17T03:17:05.557Z,98666.22
2018-01-17T03:19:31.293Z,98652.75
2018-01-17T03:21:57.043Z,98651.93
2018-01-17T03:24:22.785Z,98658.45
2018-01-17T03:26:48.542Z,98655.05
2018-01-17T03:29:14.277Z,98647.31
2018-01-17T03:31:40.032Z,98646.41
2018-01-17T03:34:05.773Z,98655.56
2018-01-17T03:36:31.531Z,98643.87
2018-01-17T03:38:57.282Z,98644.79
2018-01-17T03:41:23.022Z,98638.36
2018-01-17T03:43:48.770Z,98642.22
2018-01-17T03:46:14.510Z,98645.70
2018-01-17T03:48:40.256Z,98640.95
2018-01-17T03:51:06.018Z,98649.69
2018-01-17T03:53:31.782Z,98646.21
2018-01-17T03:55:57.534Z,98647.55
2018-01-17T03:58:23.287Z,98650.56
2018-01-17T04:00:49.022Z,98648.86
2018-01-17T04:03:14.763Z,98650.28
2018-01-17T04:05:40.495Z,98658.17
2018-01-17T04:08:06.251Z,98659.95
2018-01-17T04:10:31.990Z,98665.71
2018-01-17T04:12:57.746Z,98662.64
2018-01-17T04:15:23.489Z,98664.02
2018-01-17T04:17:49.253Z,98658.89
2018-01-17T04:20:15.003Z,98665.36
2018-01-17T04:22:41.810Z,98668.51
2018-01-17T04:25:07.583Z,98659.39
2018-01-17T04:27:33.350Z,98654.18
2018-01-17T04:29:59.106Z,98662.47
2018-01-17T04:32:24.855Z,98657.22
2018-01-17T04:34:50.624Z,98663.78
2018-01-17T04:37:16.387Z,98655.52
2018-01-17T04:39:42.151Z,98658.64
2018-01-17T04:42:07.907Z,98658.61
2018-01-17T04:44:33.674Z,98660.77
2018-01-17T04:46:59.439Z,98665.52
2018-01-17T04:49:25.203Z,98663.73
2018-01-17T04:51:50.970Z,98666.34
2018-01-17T04:54:16.729Z,98670.61
2018-01-17T04:56:42.484Z,98673.61
2018-01-17T04:59:08.275Z,98671.05
2018-01-17T05:01:34.023Z,98664.92
2018-01-17T05:03:59.783Z,98655.84
2018-01-17T05:06:25.527Z,98662.20
2018-01-17T05:08:51.298Z,98669.11
2018-01-17T05:11:17.035Z,98669.23
2018-01-17T05:13:42.794Z,98665.20
2018-01-17T05:16:08.559Z,98671.79
2018-01-17T05:18:34.303Z,98665.71
2018-01-17T05:21:00.060Z,98672.55
2018-01-17T05:23:25.815Z,98674.76
2018-01-17T05:25:51.558Z,98669.15
2018-01-17T05:28:17.306Z,98670.05
2018-01-17T05:30:43.090Z,98663.15
2018-01-17T05:33:08.821Z,98659.67
2018-01-17T05:35:34.578Z,98655.25
2018-01-17T05:38:00.322Z,98661.02
2018-01-17T05:40:26.073Z,98668.32
2018-01-17T05:42:51.856Z,98675.66
2018-01-17T05:45:17.586Z,98676.09
2018-01-17T05:47:43.338Z,98682.97
2018-01-17T05:50:09.110Z,98683.41
2018-01-17T05:52:34.880Z,98689.52
2018-01-17T05:55:00.633Z,98696.31
2018-01-17T05:57:26.411Z,98699.36
2018-01-17T05:59:52.158Z,98707.53
2018-01-17T06:02:17.943Z,98713.14
2018-01-17T06:04:43.703Z,98713.61
2018-01-17T06:07:09.474Z,98710.93
2018-01-17T06:09:35.226Z,98718.78
2018-01-17T06:12:01.016Z,98713.61
2018-01-17T06:14:26.790Z,98715.70
2018-01-17T06:16:52.578Z,98717.95
2018-01-17T06:19:18.334Z,98733.98
2018-01-17T06:21:44.097Z,98729.20
2018-01-17T06:24:09.846Z,98730.47
2018-01-17T06:26:35.618Z,98725.70
2018-01-17T06:29:01.382Z,98730.16
2018-01-17T06:31:27.174Z,98737.94
2018-01-17T06:33:52.934Z,98739.62
2018-01-17T06:36:18.691Z,98743.47
2018-01-17T06:38:44.467Z,98752.16
2018-01-17T06:41:10.236Z,98752.51
2018-01-17T06:43:36.018Z,98758.12
2018-01-17T06:46:01.769Z,98758.12
2018-01-17T06:48:27.537Z,98762.86
2018-01-17T06:50:53.304Z,98763.69
2018-01-17T06:53:19.066Z,98764.13
2018-01-17T06:55:44.830Z,98761.91
2018-01-17T06:58:10.590Z,98760.61
2018-01-17T07:00:36.347Z,98766.22
2018-01-17T07:03:02.118Z,98778.23
2018-01-17T07:05:27.882Z,98776.17
2018-01-17T07:07:53.650Z,98783.56
2018-01-17T07:10:19.419Z,98781.78
2018-01-17T07:12:45.195Z,98792.69
2018-01-17T07:15:10.980Z,98796.52
2018-01-17T07:17:36.737Z,98796.95
2018-01-17T07:20:02.510Z,98792.69
2018-01-17T07:22:28.270Z,98800.39
2018-01-17T07:24:54.042Z,98810.89
2018-01-17T07:27:26.911Z,98820.81
2018-01-17T07:29:52.722Z,98822.08
2018-01-17T07:32:18.497Z,98826.93
2018-01-17T07:34:45.175Z,98824.39
2018-01-17T07:37:10.979Z,98830.01
2018-01-17T07:39:36.819Z,98832.62
2018-01-17T07:42:02.619Z,98840.00
2018-01-17T07:44:28.455Z,98846.92
2018-01-17T07:46:54.245Z,98847.72
2018-01-17T07:49:20.070Z,98848.77
2018-01-17T07:51:45.878Z,98847.46
2018-01-17T07:54:11.722Z,98850.94
2018-01-17T07:56:37.490Z,98853.00
2018-01-17T07:59:03.250Z,98861.72
2018-01-17T08:01:28.995Z,98866.50
2018-01-17T08:03:54.763Z,98867.38
2018-01-17T08:06:20.523Z,98861.72
2018-01-17T08:08:46.274Z,98865.64
2018-01-17T08:11:12.026Z,98874.29
2018-01-17T08:13:37.773Z,98871.64
2018-01-17T08:16:03.526Z,98871.22
2018-01-17T08:18:29.274Z,98879.00
2018-01-17T08:20:55.055Z,98874.22
2018-01-17T08:23:20.851Z,98872.52
2018-01-17T08:25:46.577Z,98879.00
2018-01-17T08:28:12.334Z,98892.87
2018-01-17T08:30:38.081Z,98896.67
2018-01-17T08:33:03.842Z,98901.09
2018-01-17T08:35:29.612Z,98901.02
2018-01-17T08:37:55.361Z,98911.08
2018-01-17T08:40:21.119Z,98917.59
2018-01-17T08:42:46.874Z,98918.06
2018-01-17T08:45:12.617Z,98918.17
2018-01-17T08:47:38.361Z,98925.52
2018-01-17T08:50:04.094Z,98929.50
2018-01-17T08:52:29.846Z,98943.84
2018-01-17T08:54:55.601Z,98945.61
2018-01-17T08:57:21.359Z,98948.15
2018-01-17T08:59:47.102Z,98957.61
2018-01-17T09:02:12.862Z,98969.77
2018-01-17T09:04:38.599Z,98976.26
2018-01-17T09:07:04.350Z,98975.83
2018-01-17T09:09:30.094Z,98975.86
2018-01-17T09:11:55.838Z,98983.25
2018-01-17T09:14:21.579Z,98982.78
2018-01-17T09:16:47.322Z,98977.86
2018-01-17T09:19:13.076Z,98982.47
2018-01-17T09:21:38.868Z,98984.58
2018-01-17T09:24:04.626Z,98983.17
2018-01-17T09:26:30.399Z,98987.34
2018-01-17T09:28:56.145Z,98988.51
2018-01-17T09:31:21.887Z,99001.38
2018-01-17T09:33:47.631Z,99002.91
2018-01-17T09:36:13.388Z,99006.64
2018-01-17T09:38:39.143Z,99009.28
2018-01-17T09:41:04.891Z,99015.08
2018-01-17T09:43:30.656Z,99016.93
2018-01-17T09:45:56.394Z,99018.34
2018-01-17T09:48:22.146Z,99022.66
2018-01-17T09:50:47.907Z,99028.96
2018-01-17T09:53:13.651Z,99047.73
2018-01-17T09:55:39.409Z,99060.05
2018-01-17T09:58:05.167Z,99070.87
2018-01-17T10:00:30.906Z,99085.67
2018-01-17T10:02:56.661Z,99078.97
2018-01-17T10:05:22.410Z,99075.75
2018-01-17T10:07:48.191Z,99078.39
2018-01-17T10:10:13.946Z,99081.03
2018-01-17T10:12:39.684Z,99090.96
2018-01-17T10:15:05.427Z,99087.52
2018-01-17T10:17:31.179Z,99090.19
2018-01-17T10:19:56.934Z,99088.02
2018-01-17T10:22:22.661Z,99085.34
2018-01-17T10:24:48.419Z,99089.62
2018-01-17T10:27:14.158Z,99088.20
2018-01-17T10:29:39.899Z,99091.63
2018-01-17T10:32:05.658Z,99088.83
2018-01-17T10:34:31.426Z,99091.66
2018-01-17T10:36:57.178Z,99102.09
2018-01-17T10:39:22.942Z,99100.26
2018-01-17T10:41:48.667Z,99094.14
2018-01-17T10:44:14.411Z,99105.12
2018-01-17T10:46:40.166Z,99102.95
2018-01-17T10:49:05.927Z,99099.34
2018-01-17T10:51:31.690Z,99096.64
2018-01-17T10:53:57.438Z,99097.45
2018-01-17T10:56:23.199Z,99089.52
2018-01-17T10:58:48.946Z,99090.66
2018-01-17T11:01:14.696Z,99087.61
2018-01-17T11:03:40.484Z,99087.61
2018-01-17T11:06:06.207Z,99097.14
2018-01-17T11:08:31.958Z,99115.34
2018-01-17T11:10:57.720Z,99113.77
2018-01-17T11:13:23.475Z,99120.30
2018-01-17T11:15:49.242Z,99130.02
2018-01-17T11:18:14.992Z,99119.99
2018-01-17T11:20:40.750Z,99117.48
2018-01-17T11:23:06.478Z,99118.78
2018-01-17T11:25:32.242Z,99125.70
2018-01-17T11:27:57.994Z,99132.30
2018-01-17T11:30:23.741Z,99130.98
2018-01-17T11:32:49.485Z,99138.38
2018-01-17T11:35:15.229Z,99141.36
2018-01-17T11:37:40.979Z,99142.58
2018-01-17T11:40:06.779Z,99146.29
2018-01-17T11:42:32.528Z,99143.68
2018-01-17T11:44:58.283Z,99146.16
2018-01-17T11:47:24.042Z,99156.70
2018-01-17T11:49:49.785Z,99146.86
2018-01-17T11:52:15.566Z,99158.26
2018-01-17T11:54:41.305Z,99165.41
2018-01-17T11:57:07.065Z,99173.23
2018-01-17T11:59:32.837Z,99179.04
2018-01-17T12:01:58.602Z,99170.75
2018-01-17T12:04:24.376Z,99159.47
2018-01-17T12:06:50.147Z,99162.98
2018-01-17T12:09:15.906Z,99168.61
2018-01-17T12:11:41.683Z,99160.99
2018-01-17T12:14:07.445Z,99160.38
2018-01-17T12:16:33.223Z,99161.48
2018-01-17T12:18:58.973Z,99156.91
2018-01-17T12:21:24.736Z,99154.16
2018-01-17T12:23:50.510Z,99149.07
2018-01-17T12:26:16.257Z,99155.09
2018-01-17T12:28:42.034Z,99165.06
2018-01-17T12:31:07.794Z,99166.27
2018-01-17T12:33:33.570Z,99174.51
2018-01-17T12:35:59.336Z,99174.17
2018-01-17T12:38:25.106Z,99175.08
2018-01-17T12:40:50.853Z,99177.28
2018-01-17T12:43:16.615Z,99183.88
2018-01-17T12:45:42.374Z,99188.79
2018-01-17T12:48:08.147Z,99184.94
2018-01-17T12:50:33.906Z,99190.16
2018-01-17T12:52:59.681Z,99192.37
2018-01-17T12:55:25.456Z,99194.60
2018-01-17T12:57:51.218Z,99193.83
2018-01-17T13:00:16.966Z,99196.03
2018-01-17T13:02:42.742Z,99198.36
2018-01-17T13:05:08.494Z,99199.14
2018-01-17T13:07:34.276Z,99202.68
2018-01-17T13:10:00.040Z,99203.79
2018-01-17T13:12:25.817Z,99208.28
2018-01-17T13:14:51.590Z,99207.34
2018-01-17T13:17:17.342Z,99209.13
2018-01-17T13:19:43.111Z,99215.41
2018-01-17T13:22:08.863Z,99213.80
2018-01-17T13:24:34.628Z,99218.77
2018-01-17T13:27:00.375Z,99224.73
2018-01-17T13:29:26.142Z,99223.00
2018-01-17T13:31:51.894Z,99220.88
2018-01-17T13:34:17.695Z,99227.01
2018-01-17T13:36:43.446Z,99235.18
2018-01-17T13:39:09.218Z,99229.13
2018-01-17T13:41:34.970Z,99221.88
2018-01-17T13:44:00.743Z,99228.06
2018-01-17T13:46:26.499Z,99235.55
2018-01-17T13:48:52.282Z,99238.80
2018-01-17T13:51:18.047Z,99246.84
2018-01-17T13:53:43.836Z,99247.12
2018-01-17T13:56:09.586Z,99249.08
2018-01-17T13:58:35.352Z,99250.02
2018-01-17T14:01:01.111Z,99252.81
2018-01-17T14:03:26.863Z,99265.52
2018-01-17T14:05:52.641Z,99270.83
2018-01-17T14:08:18.396Z,99278.30
2018-01-17T14:10:44.169Z,99287.44
2018-01-17T14:13:09.930Z,99287.13
2018-01-17T14:15:35.699Z,99298.80
2018-01-17T14:18:01.447Z,99300.22
2018-01-17T14:20:27.247Z,99307.95
2018-01-17T14:22:52.994Z,99304.01
2018-01-17T14:25:18.775Z,99311.88
2018-01-17T14:27:44.522Z,99306.20
2018-01-17T14:30:10.286Z,99315.77
2018-01-17T14:32:36.042Z,99313.22
2018-01-17T14:35:01.802Z,99315.89
2018-01-17T14:37:27.571Z,99305.02
2018-01-17T14:39:53.362Z,99317.59
2018-01-17T14:42:19.127Z,99319.72
2018-01-17T14:44:44.884Z,99320.13
2018-01-17T14:47:10.655Z,99329.27
2018-01-17T14:49:36.430Z,99326.64
2018-01-17T14:52:02.211Z,99327.47
2018-01-17T14:54:27.962Z,99324.33
2018-01-17T14:56:53.732Z,99327.78
2018-01-17T14:59:19.525Z,99322.55
2018-01-17T15:01:45.281Z,99338.12
2018-01-17T15:04:11.038Z,99335.53
2018-01-17T15:06:36.820Z,99345.52
2018-01-17T15:09:02.594Z,99352.84
2018-01-17T15:11:28.427Z,99361.53
2018-01-17T15:13:54.134Z,99377.52
2018-01-17T15:16:19.911Z,99378.79
2018-01-17T15:18:45.694Z,99383.98
2018-01-17T15:21:11.458Z,99396.56
2018-01-17T15:23:37.235Z,99394.80
2018-01-17T15:26:02.998Z,99400.06
2018-01-17T15:28:28.765Z,99404.50
2018-01-17T15:30:54.521Z,99409.23
2018-01-17T15:33:20.286Z,99418.88
2018-01-17T15:35:46.052Z,99415.98
2018-01-17T15:38:11.819Z,99426.54
2018-01-17T15:40:37.563Z,99428.27
2018-01-17T15:43:03.331Z,99426.68
2018-01-17T15:45:29.079Z,99426.69
2018-01-17T15:47:54.843Z,99423.33
2018-01-17T15:50:20.605Z,99420.34
2018-01-17T15:52:46.363Z,99410.44
2018-01-17T15:55:12.110Z,99416.53
2018-01-17T15:57:37.858Z,99418.75
2018-01-17T16:00:03.661Z,99422.65
2018-01-17T16:02:29.390Z,99427.84
2018-01-17T16:04:55.153Z,99429.95
2018-01-17T16:07:20.911Z,99427.84
2018-01-17T16:09:46.658Z,99426.94
2018-01-17T16:12:12.414Z,99427.43
2018-01-17T16:14:38.185Z,99431.30
2018-01-17T16:17:03.922Z,99433.12
2018-01-17T16:19:29.671Z,99441.39
2018-01-17T16:21:55.406Z,99448.78
2018-01-17T16:24:21.151Z,99445.30
2018-01-17T16:26:46.919Z,99445.23
2018-01-17T16:29:12.715Z,99446.44
2018-01-17T16:31:38.454Z,99452.97
2018-01-17T16:34:04.212Z,99456.83
2018-01-17T16:36:29.954Z,99458.05
2018-01-17T16:38:55.759Z,99462.78
2018-01-17T16:41:21.516Z,99461.89
2018-01-17T16:43:47.261Z,99460.40
2018-01-17T16:46:13.459Z,99476.14
2018-01-17T16:48:39.286Z,99473.05
2018-01-17T16:51:05.048Z,99479.47
2018-01-17T16:53:30.799Z,99483.00
2018-01-17T16:55:56.571Z,99492.20
2018-01-17T16:58:22.304Z,99495.59
2018-01-17T17:00:48.064Z,99500.34
2018-01-17T17:03:13.820Z,99493.78
2018-01-17T17:05:39.584Z,99498.11
2018-01-17T17:08:05.326Z,99505.47
2018-01-17T17:10:31.091Z,99504.61
2018-01-17T17:12:56.828Z,99499.34
2018-01-17T17:15:22.580Z,99506.70
2018-01-17T17:17:48.333Z,99514.50
2018-01-17T17:20:14.098Z,99508.08
2018-01-17T17:22:39.845Z,99515.05
2018-01-17T17:25:05.594Z,99519.48
2018-01-17T17:27:31.351Z,99525.12
2018-01-17T17:29:57.102Z,99530.30
2018-01-17T17:32:22.859Z,99532.14
2018-01-17T17:34:48.606Z,99541.23
2018-01-17T17:37:14.354Z,99549.98
2018-01-17T17:39:40.104Z,99545.22
2018-01-17T17:42:05.879Z,99553.45
2018-01-17T17:44:31.625Z,99554.80
2018-01-17T17:46:57.402Z,99557.41
2018-01-17T17:49:23.142Z,99563.91
2018-01-17T17:51:48.911Z,99567.73
2018-01-17T17:54:14.656Z,99569.92
2018-01-17T17:56:40.418Z,99572.44
2018-01-17T17:59:06.162Z,99578.10
2018-01-17T18:01:31.923Z,99586.75
2018-01-17T18:03:57.686Z,99581.50
2018-01-17T18:06:23.442Z,99580.09
2018-01-17T18:08:49.216Z,99582.28
2018-01-17T18:11:14.977Z,99587.94
2018-01-17T18:13:40.727Z,99586.19
2018-01-17T18:16:06.470Z,99592.73
2018-01-17T18:18:32.284Z,99600.13
2018-01-17T18:20:57.994Z,99608.36
2018-01-17T18:23:24.801Z,99610.95
2018-01-17T18:25:50.570Z,99611.42
2018-01-17T18:28:16.518Z,99611.42
2018-01-17T18:30:42.291Z,99616.16
2018-01-17T18:33:08.048Z,99615.73
2018-01-17T18:35:33.845Z,99611.50
2018-01-17T18:37:59.707Z,99612.36
2018-01-17T18:40:25.458Z,99613.67
2018-01-17T18:42:51.218Z,99616.72
2018-01-17T18:45:17.030Z,99626.23
2018-01-17T18:47:42.791Z,99620.14
2018-01-17T18:50:08.582Z,99624.42
2018-01-17T18:52:34.347Z,99624.86
2018-01-17T18:55:00.103Z,99627.91
2018-01-17T18:57:25.858Z,99633.98
2018-01-17T18:59:51.622Z,99628.77
2018-01-17T19:02:17.424Z,99628.37
2018-01-17T19:04:43.186Z,99627.87
2018-01-17T19:07:08.995Z,99637.84
2018-01-17T19:09:34.750Z,99633.04
2018-01-17T19:12:00.504Z,99639.08
2018-01-17T19:14:26.254Z,99641.78
2018-01-17T19:16:52.007Z,99644.88
2018-01-17T19:19:17.745Z,99641.38
2018-01-17T19:21:43.494Z,99647.50
2018-01-17T19:24:09.255Z,99652.67
2018-01-17T19:26:35.006Z,99661.84
2018-01-17T19:29:00.779Z,99663.19
2018-01-17T19:31:26.530Z,99666.26
2018-01-17T19:33:52.298Z,99673.17
2018-01-17T19:36:18.051Z,99663.55
2018-01-17T19:38:43.814Z,99662.73
2018-01-17T19:41:09.563Z,99668.34
2018-01-17T19:43:35.322Z,99671.41
2018-01-17T19:46:01.074Z,99673.58
2018-01-17T19:48:26.835Z,99668.34
2018-01-17T19:50:52.593Z,99671.43
2018-01-17T19:53:18.352Z,99668.81
2018-01-17T19:55:44.102Z,99676.95
2018-01-17T19:58:09.854Z,99680.45
2018-01-17T20:00:35.623Z,99683.03
2018-01-17T20:03:01.366Z,99684.75
2018-01-17T20:05:27.133Z,99690.41
2018-01-17T20:07:52.891Z,99690.04
2018-01-17T20:10:18.643Z,99694.00
2018-01-17T20:12:44.410Z,99703.97
2018-01-17T20:15:10.969Z,99704.78
2018-01-17T20:17:36.705Z,99710.83
2018-01-17T20:20:02.461Z,99703.38
2018-01-17T20:25:30.958Z,99714.22
2018-01-17T20:27:56.707Z,99705.98
2018-01-17T20:30:22.463Z,99706.81
2018-01-17T20:32:48.193Z,99705.14
2018-01-17T20:35:13.943Z,99712.92
2018-01-17T20:37:39.687Z,99709.13
2018-01-17T20:40:05.461Z,99715.19
2018-01-17T20:42:31.226Z,99709.62
2018-01-17T20:44:56.986Z,99712.72
2018-01-17T20:47:22.758Z,99712.72
2018-01-17T20:49:48.538Z,99711.45
2018-01-17T20:52:14.278Z,99714.92
2018-01-17T20:54:40.023Z,99720.18
2018-01-17T20:57:05.785Z,99725.41
2018-01-17T20:59:31.540Z,99731.00
2018-01-17T21:01:57.293Z,99743.63
2018-01-17T21:04:23.055Z,99739.28
2018-01-17T21:06:48.827Z,99740.60
2018-01-17T21:09:14.591Z,99741.04
2018-01-17T21:11:40.360Z,99740.16
2018-01-17T21:14:06.115Z,99736.70
2018-01-17T21:16:31.890Z,99738.80
2018-01-17T21:18:57.650Z,99740.86
2018-01-17T21:21:23.412Z,99740.70
2018-01-17T21:23:49.187Z,99748.45
2018-01-17T21:26:14.947Z,99744.41
2018-01-17T21:28:40.727Z,99746.58
2018-01-17T21:31:06.483Z,99750.52
2018-01-17T21:33:32.262Z,99756.58
2018-01-17T21:35:58.021Z,99754.86
2018-01-17T21:38:23.790Z,99753.51
2018-01-17T21:40:49.553Z,99760.01
2018-01-17T21:43:21.447Z,99756.95
2018-01-17T21:45:50.101Z,99755.63
2018-01-17T21:48:15.886Z,99757.86
2018-01-17T21:50:41.646Z,99750.97
2018-01-17T21:53:07.403Z,99747.97
2018-01-17T21:55:33.160Z,99748.45
2018-01-17T21:57:58.907Z,99758.52
2018-01-17T22:00:24.656Z,99757.31
2018-01-17T22:02:50.436Z,99759.02
2018-01-17T22:05:16.227Z,99755.19
2018-01-17T22:07:41.975Z,99753.86
2018-01-17T22:10:07.722Z,99762.08
2018-01-17T22:12:33.502Z,99770.77
2018-01-17T22:14:59.258Z,99766.42
2018-01-17T22:17:25.007Z,99770.73
2018-01-17T22:19:50.766Z,99781.16
2018-01-17T22:22:16.514Z,99780.27
2018-01-17T22:24:42.282Z,99786.35
2018-01-17T22:27:08.023Z,99778.13
2018-01-17T22:29:33.787Z,99760.73
2018-01-17T22:31:59.545Z,99761.61
2018-01-17T22:34:25.303Z,99766.48
2018-01-17T22:36:51.062Z,99771.72
2018-01-17T22:39:16.814Z,99772.56
2018-01-17T22:41:42.572Z,99773.45
2018-01-17T22:44:08.343Z,99777.77
2018-01-17T22:46:34.088Z,99781.66
2018-01-17T22:48:59.834Z,99779.00
2018-01-17T22:51:25.615Z,99782.87
2018-01-17T22:53:51.358Z,99788.45
2018-01-17T22:56:17.115Z,99801.45
2018-01-17T22:58:42.871Z,99807.08
2018-01-17T23:01:08.631Z,99796.67
2018-01-17T23:03:34.386Z,99800.09
2018-01-17T23:06:00.170Z,99798.77
2018-01-17T23:08:25.928Z,99808.78
2018-01-17T23:10:51.702Z,99814.37
2018-01-17T23:13:17.729Z,99815.28
2018-01-17T23:15:43.493Z,99813.97
2018-01-17T23:18:09.251Z,99820.02
2018-01-17T23:20:35.035Z,99813.00
2018-01-17T23:23:00.791Z,99818.25
2018-01-17T23:25:26.563Z,99818.22
2018-01-17T23:27:52.572Z,99819.48
2018-01-17T23:30:18.344Z,99808.65
2018-01-17T23:32:44.924Z,99822.95
2018-01-17T23:35:10.690Z,99816.41
2018-01-17T23:37:36.451Z,99820.33
2018-01-17T23:40:02.211Z,99816.41
2018-01-17T23:42:27.987Z,99808.16
2018-01-17T23:44:53.742Z,99809.04
2018-01-17T23:47:19.511Z,99813.29
2018-01-17T23:49:45.302Z,99817.63
2018-01-17T23:52:11.031Z,99818.95
2018-01-17T23:54:36.782Z,99817.23
2018-01-17T23:57:02.542Z,99818.58
2018-01-17T23:59:28.288Z,99817.68
